createdAt,value
2018-04-13T00:01:26.079Z,17.00
2018-04-13T00:03:53.776Z,19.77
2018-04-13T00:06:21.393Z,14.77
2018-04-13T00:08:49.100Z,10.83
2018-04-13T00:11:16.724Z,17.00
2018-04-13T00:13:44.517Z,16.27
2018-04-13T00:16:12.184Z,14.80
2018-04-13T00:18:40.250Z,19.07
2018-04-13T00:21:07.946Z,15.17
2018-04-13T00:23:36.364Z,12.57
2018-04-13T00:26:04.097Z,14.90
2018-04-13T00:28:32.527Z,15.77
2018-04-13T00:31:00.236Z,14.80
2018-04-13T00:33:28.632Z,14.50
2018-04-13T00:35:57.072Z,18.17
2018-04-13T00:38:24.928Z,19.67
2018-04-13T00:40:52.544Z,18.93
2018-04-13T00:43:21.123Z,22.13
2018-04-13T00:45:49.688Z,21.50
2018-04-13T00:48:17.523Z,17.93
2018-04-13T00:50:46.416Z,15.37
2018-04-13T00:53:26.068Z,21.07
2018-04-13T00:55:53.719Z,18.87
2018-04-13T00:58:21.412Z,19.62
2018-04-13T01:00:49.185Z,19.20
2018-04-13T01:03:17.763Z,14.23
2018-04-13T01:05:45.383Z,20.00
2018-04-13T01:08:13.013Z,17.87
2018-04-13T01:10:40.821Z,16.10
2018-04-13T01:13:08.588Z,18.37
2018-04-13T01:15:36.457Z,16.50
2018-04-13T01:18:04.244Z,14.23
2018-04-13T01:20:32.017Z,16.45
2018-04-13T01:22:59.656Z,14.23
2018-04-13T01:25:27.413Z,14.27
2018-04-13T01:27:55.277Z,13.40
2018-04-13T01:30:23.044Z,15.85
2018-04-13T01:32:50.816Z,16.40
2018-04-13T01:35:18.516Z,16.87
2018-04-13T01:37:46.894Z,16.30
2018-04-13T01:40:15.364Z,13.03
2018-04-13T01:42:43.124Z,18.97
2018-04-13T01:45:10.966Z,18.10
2018-04-13T01:47:38.583Z,10.57
2018-04-13T01:50:06.999Z,17.73
2018-04-13T01:52:34.767Z,15.50
2018-04-13T01:55:02.532Z,12.68
2018-04-13T01:57:31.184Z,17.97
2018-04-13T01:59:59.612Z,13.63
2018-04-13T02:02:27.465Z,18.48
2018-04-13T02:04:55.117Z,13.97
2018-04-13T02:07:22.752Z,13.88
2018-04-13T02:09:51.301Z,13.87
2018-04-13T02:12:19.038Z,12.70
2018-04-13T02:14:46.668Z,14.47
2018-04-13T02:17:14.325Z,12.55
2018-04-13T02:19:41.932Z,16.50
2018-04-13T02:22:09.686Z,18.47
2018-04-13T02:24:37.552Z,12.13
2018-04-13T02:27:05.272Z,15.50
2018-04-13T02:29:33.649Z,14.93
2018-04-13T02:32:02.211Z,20.00
2018-04-13T02:34:30.007Z,17.85
2018-04-13T02:36:57.632Z,13.10
2018-04-13T02:39:25.534Z,16.53
2018-04-13T02:41:53.247Z,14.30
2018-04-13T02:44:20.915Z,17.07
2018-04-13T02:46:48.643Z,15.70
2018-04-13T02:49:16.434Z,17.77
2018-04-13T02:51:44.064Z,15.83
2018-04-13T02:54:11.857Z,15.93
2018-04-13T02:56:39.622Z,16.20
2018-04-13T02:59:07.388Z,11.60
2018-04-13T03:01:35.029Z,16.33
2018-04-13T03:04:02.676Z,14.40
2018-04-13T03:06:30.284Z,22.62
2018-04-13T03:08:57.900Z,14.60
2018-04-13T03:11:25.548Z,16.60
2018-04-13T03:13:53.923Z,14.93
2018-04-13T03:16:22.413Z,15.50
2018-04-13T03:18:50.077Z,17.87
2018-04-13T03:21:18.711Z,13.80
2018-04-13T03:23:46.326Z,17.57
2018-04-13T03:26:14.853Z,17.40
2018-04-13T03:28:42.640Z,16.27
2018-04-13T03:31:10.393Z,16.20
2018-04-13T03:33:38.142Z,13.40
2018-04-13T03:36:06.008Z,15.48
2018-04-13T03:38:33.666Z,12.13
2018-04-13T03:41:01.289Z,12.63
2018-04-13T03:43:29.126Z,15.75
2018-04-13T03:45:56.963Z,13.77
2018-04-13T03:48:24.727Z,17.97
2018-04-13T03:50:52.497Z,17.10
2018-04-13T03:53:20.365Z,13.77
2018-04-13T03:55:47.986Z,16.47
2018-04-13T03:58:17.489Z,13.00
2018-04-13T04:00:45.920Z,14.23
2018-04-13T04:03:13.701Z,12.33
2018-04-13T04:05:41.484Z,17.60
2018-04-13T04:08:09.948Z,18.37
2018-04-13T04:10:37.713Z,16.47
2018-04-13T04:13:05.483Z,15.50
2018-04-13T04:15:33.254Z,18.17
2018-04-13T04:18:01.678Z,13.80
2018-04-13T04:20:42.193Z,14.43
2018-04-13T04:23:21.608Z,12.03
2018-04-13T04:26:01.362Z,17.60
2018-04-13T04:28:29.041Z,14.97
2018-04-13T04:30:56.733Z,15.83
2018-04-13T04:33:24.429Z,16.63
2018-04-13T04:35:52.193Z,16.40
2018-04-13T04:38:19.811Z,15.73
2018-04-13T04:40:48.338Z,17.23
2018-04-13T04:43:16.004Z,16.67
2018-04-13T04:45:43.630Z,15.10
2018-04-13T04:48:12.139Z,14.47
2018-04-13T04:50:39.908Z,17.37
2018-04-13T04:53:08.332Z,19.10
2018-04-13T04:55:36.744Z,17.97
2018-04-13T04:58:04.356Z,15.30
2018-04-13T05:00:32.012Z,20.02
2018-04-13T05:02:59.860Z,21.60
2018-04-13T05:05:31.841Z,17.97
2018-04-13T05:07:59.480Z,18.13
2018-04-13T05:10:27.164Z,20.03
2018-04-13T05:12:54.775Z,14.83
2018-04-13T05:15:22.384Z,18.10
2018-04-13T05:17:50.239Z,15.30
2018-04-13T05:20:19.310Z,18.55
2018-04-13T05:22:47.683Z,21.30
2018-04-13T05:25:15.480Z,19.57
2018-04-13T05:27:43.168Z,19.47
2018-04-13T05:30:10.788Z,15.97
2018-04-13T05:32:38.419Z,20.42
2018-04-13T05:35:07.011Z,15.53
2018-04-13T05:37:34.816Z,14.90
2018-04-13T05:40:02.581Z,22.45
2018-04-13T05:42:30.446Z,11.93
2018-04-13T05:44:58.145Z,15.47
2018-04-13T05:47:25.875Z,16.17
2018-04-13T05:49:53.610Z,17.77
2018-04-13T05:52:21.923Z,17.75
2018-04-13T05:54:49.578Z,16.87
2018-04-13T05:57:18.165Z,22.23
2018-04-13T05:59:45.837Z,20.63
2018-04-13T06:02:13.566Z,16.90
2018-04-13T06:04:41.248Z,20.25
2018-04-13T06:07:08.855Z,17.47
2018-04-13T06:09:37.309Z,15.47
2018-04-13T06:12:04.977Z,16.57
2018-04-13T06:14:32.638Z,12.67
2018-04-13T06:17:01.105Z,14.20
2018-04-13T06:19:28.726Z,15.98
2018-04-13T06:21:56.361Z,13.20
2018-04-13T06:24:24.165Z,15.07
2018-04-13T06:26:52.675Z,17.43
2018-04-13T06:29:20.291Z,14.53
2018-04-13T06:31:48.814Z,11.70
2018-04-13T06:34:16.588Z,11.87
2018-04-13T06:36:44.257Z,13.90
2018-04-13T06:39:11.898Z,14.43
2018-04-13T06:41:39.561Z,15.20
2018-04-13T06:44:07.247Z,16.73
2018-04-13T06:46:37.710Z,10.10
2018-04-13T06:49:07.097Z,11.47
2018-04-13T06:51:35.895Z,14.73
2018-04-13T06:54:03.843Z,9.47
2018-04-13T06:56:32.296Z,13.63
2018-04-13T06:58:59.942Z,13.07
2018-04-13T07:01:27.612Z,14.00
2018-04-13T07:03:55.272Z,14.07
2018-04-13T07:06:22.904Z,11.17
2018-04-13T07:08:51.291Z,15.03
2018-04-13T07:11:18.964Z,13.43
2018-04-13T07:13:47.709Z,12.00
2018-04-13T07:16:15.485Z,16.77
2018-04-13T07:18:43.926Z,10.13
2018-04-13T07:21:11.542Z,11.63
2018-04-13T07:23:39.192Z,14.07
2018-04-13T07:26:10.038Z,19.07
2018-04-13T07:28:37.950Z,11.88
2018-04-13T07:31:07.296Z,10.77
2018-04-13T07:33:35.696Z,11.40
2018-04-13T07:36:04.284Z,10.10
2018-04-13T07:38:31.748Z,10.70
2018-04-13T07:40:59.445Z,13.17
2018-04-13T07:43:27.143Z,13.30
2018-04-13T07:45:55.789Z,9.82
2018-04-13T07:48:23.808Z,9.57
2018-04-13T07:50:51.245Z,8.40
2018-04-13T07:53:18.980Z,11.47
2018-04-13T07:55:46.644Z,13.83
2018-04-13T07:58:14.267Z,10.18
2018-04-13T08:00:42.786Z,9.63
2018-04-13T08:03:10.424Z,8.43
2018-04-13T08:05:38.084Z,12.13
2018-04-13T08:08:05.874Z,12.87
2018-04-13T08:10:33.531Z,10.35
2018-04-13T08:13:01.183Z,7.23
2018-04-13T08:15:28.929Z,10.02
2018-04-13T08:17:56.596Z,8.57
2018-04-13T08:20:24.243Z,11.40
2018-04-13T08:22:52.714Z,10.83
2018-04-13T08:25:21.181Z,8.82
2018-04-13T08:27:51.259Z,13.33
2018-04-13T08:30:18.927Z,10.73
2018-04-13T08:32:46.696Z,8.50
2018-04-13T08:35:14.564Z,13.47
2018-04-13T08:37:42.196Z,8.53
2018-04-13T08:40:09.917Z,9.45
2018-04-13T08:42:37.681Z,6.97
2018-04-13T08:45:05.458Z,11.33
2018-04-13T08:47:33.289Z,13.00
2018-04-13T08:50:01.154Z,9.77
2018-04-13T08:52:28.772Z,12.30
2018-04-13T08:54:57.286Z,10.30
2018-04-13T08:57:24.961Z,11.17
2018-04-13T08:59:52.724Z,7.57
2018-04-13T09:02:20.590Z,12.43
2018-04-13T09:04:48.215Z,13.43
2018-04-13T09:07:16.634Z,14.67
2018-04-13T09:09:44.329Z,10.50
2018-04-13T09:12:12.720Z,12.87
2018-04-13T09:14:41.186Z,12.53
2018-04-13T09:17:08.921Z,11.67
2018-04-13T09:19:36.788Z,16.40
2018-04-13T09:22:04.655Z,12.63
2018-04-13T09:24:32.353Z,11.07
2018-04-13T09:27:00.084Z,10.70
2018-04-13T09:29:27.858Z,12.15
2018-04-13T09:31:55.611Z,9.90
2018-04-13T09:34:23.260Z,11.93
2018-04-13T09:36:50.934Z,13.73
2018-04-13T09:39:18.701Z,11.43
2018-04-13T09:41:46.380Z,12.23
2018-04-13T09:44:14.230Z,12.37
2018-04-13T09:46:41.872Z,11.77
2018-04-13T09:49:09.508Z,13.17
2018-04-13T09:51:37.181Z,13.15
2018-04-13T09:54:04.983Z,14.07
2018-04-13T09:56:32.600Z,9.27
2018-04-13T09:59:01.053Z,12.33
2018-04-13T10:01:34.460Z,13.17
2018-04-13T10:04:05.257Z,11.70
2018-04-13T10:06:32.877Z,10.67
2018-04-13T10:09:01.401Z,11.57
2018-04-13T10:11:29.166Z,12.07
2018-04-13T10:13:56.856Z,10.93
2018-04-13T10:16:24.635Z,15.33
2018-04-13T10:18:53.223Z,13.10
2018-04-13T10:21:21.721Z,13.97
2018-04-13T10:23:50.243Z,11.73
2018-04-13T10:26:21.778Z,13.77
2018-04-13T10:28:49.561Z,15.20
2018-04-13T10:31:17.208Z,11.43
2018-04-13T10:33:44.836Z,10.57
2018-04-13T10:36:13.397Z,11.60
2018-04-13T10:38:41.062Z,12.33
2018-04-13T10:41:08.807Z,9.95
2018-04-13T10:43:36.428Z,15.63
2018-04-13T10:46:04.162Z,11.90
2018-04-13T10:48:34.513Z,10.67
2018-04-13T10:51:02.310Z,15.40
2018-04-13T10:53:29.931Z,14.67
2018-04-13T10:55:58.381Z,9.43
2018-04-13T10:58:26.219Z,10.43
2018-04-13T11:00:53.851Z,8.43
2018-04-13T11:03:21.516Z,12.63
2018-04-13T11:05:49.138Z,8.57
2018-04-13T11:08:16.754Z,11.67
2018-04-13T11:10:44.532Z,9.70
2018-04-13T11:13:12.175Z,11.83
2018-04-13T11:15:39.959Z,11.00
2018-04-13T11:18:07.603Z,8.83
2018-04-13T11:20:35.389Z,11.40
2018-04-13T11:23:03.078Z,10.67
2018-04-13T11:25:30.747Z,15.83
2018-04-13T11:27:58.899Z,11.05
2018-04-13T11:30:26.551Z,13.30
2018-04-13T11:32:54.243Z,12.47
2018-04-13T11:35:21.882Z,9.40
2018-04-13T11:37:49.547Z,12.07
2018-04-13T11:40:17.232Z,9.00
2018-04-13T11:42:45.650Z,9.87
2018-04-13T11:45:13.311Z,11.47
2018-04-13T11:47:40.943Z,12.60
2018-04-13T11:50:09.336Z,6.67
2018-04-13T11:52:37.894Z,10.23
2018-04-13T11:55:06.052Z,12.17
2018-04-13T11:57:33.906Z,11.63
2018-04-13T12:00:01.563Z,7.73
2018-04-13T12:02:29.248Z,7.60
2018-04-13T12:04:56.864Z,9.07
2018-04-13T12:07:24.557Z,8.93
2018-04-13T12:09:52.352Z,9.27
2018-04-13T12:12:20.186Z,9.60
2018-04-13T12:14:48.055Z,8.67
2018-04-13T12:17:15.729Z,8.73
2018-04-13T12:19:43.344Z,9.95
2018-04-13T12:22:11.178Z,11.03
2018-04-13T12:24:39.575Z,7.67
2018-04-13T12:27:08.108Z,7.60
2018-04-13T12:29:35.873Z,9.20
2018-04-13T12:32:03.507Z,10.90
2018-04-13T12:34:31.198Z,9.23
2018-04-13T12:36:58.824Z,10.40
2018-04-13T12:39:26.433Z,8.93
2018-04-13T12:41:54.186Z,8.40
2018-04-13T12:44:21.803Z,9.50
2018-04-13T12:46:50.206Z,8.57
2018-04-13T12:49:17.861Z,6.57
2018-04-13T12:51:45.485Z,11.57
2018-04-13T12:54:13.988Z,10.50
2018-04-13T12:56:41.810Z,10.17
2018-04-13T12:59:09.452Z,12.37
2018-04-13T13:01:37.125Z,11.02
2018-04-13T13:04:04.755Z,10.97
2018-04-13T13:06:32.549Z,10.70
2018-04-13T13:09:00.341Z,14.23
2018-04-13T13:11:28.050Z,8.37
2018-04-13T13:13:55.771Z,10.50
2018-04-13T13:16:23.453Z,9.00
2018-04-13T13:18:52.267Z,9.27
2018-04-13T13:21:19.900Z,7.10
2018-04-13T13:23:48.307Z,8.57
2018-04-13T13:26:15.912Z,8.70
2018-04-13T13:28:43.662Z,5.87
2018-04-13T13:31:11.424Z,5.17
2018-04-13T13:33:39.096Z,4.13
2018-04-13T13:36:06.874Z,5.30
2018-04-13T13:38:34.496Z,4.63
2018-04-13T13:41:02.133Z,7.50
2018-04-13T13:43:31.580Z,4.50
2018-04-13T13:45:59.450Z,5.53
2018-04-13T13:48:27.060Z,7.43
2018-04-13T13:50:55.478Z,8.97
2018-04-13T13:53:23.254Z,4.90
2018-04-13T13:55:51.122Z,5.03
2018-04-13T13:58:18.741Z,6.20
2018-04-13T14:00:46.425Z,7.47
2018-04-13T14:03:14.211Z,6.90
2018-04-13T14:05:41.975Z,5.17
2018-04-13T14:08:09.739Z,4.57
2018-04-13T14:10:37.432Z,6.97
2018-04-13T14:13:05.076Z,5.57
2018-04-13T14:15:32.753Z,7.00
2018-04-13T14:18:00.442Z,5.47
2018-04-13T14:20:28.820Z,8.07
2018-04-13T14:22:57.125Z,4.30
2018-04-13T14:25:24.808Z,5.23
2018-04-13T14:27:52.574Z,7.77
2018-04-13T14:30:20.212Z,7.43
2018-04-13T14:32:47.820Z,5.20
2018-04-13T14:35:15.590Z,7.43
2018-04-13T14:37:43.353Z,4.17
2018-04-13T14:40:11.092Z,7.83
2018-04-13T14:42:38.957Z,4.22
2018-04-13T14:45:06.723Z,7.70
2018-04-13T14:47:34.593Z,6.57
2018-04-13T14:50:02.209Z,5.63
2018-04-13T14:52:30.734Z,6.80
2018-04-13T14:54:58.377Z,9.00
2018-04-13T14:57:26.041Z,5.60
2018-04-13T14:59:53.692Z,5.67
2018-04-13T15:02:21.369Z,6.57
2018-04-13T15:04:49.077Z,19.43
2018-04-13T15:07:16.913Z,29.50
2018-04-13T15:09:44.551Z,23.10
2018-04-13T15:12:12.242Z,13.60
2018-04-13T15:14:39.852Z,14.68
2018-04-13T15:17:08.306Z,14.03
2018-04-13T15:19:35.952Z,10.60
2018-04-13T15:22:03.601Z,9.32
2018-04-13T15:24:31.231Z,8.80
2018-04-13T15:27:00.688Z,11.47
2018-04-13T15:29:28.565Z,9.73
2018-04-13T15:31:56.230Z,4.77
2018-04-13T15:34:23.962Z,5.63
2018-04-13T15:36:51.611Z,4.57
2018-04-13T15:39:19.243Z,5.40
2018-04-13T15:41:47.872Z,7.53
2018-04-13T15:44:15.638Z,5.50
2018-04-13T15:46:43.331Z,10.57
2018-04-13T15:49:11.167Z,9.37
2018-04-13T15:51:39.750Z,14.07
2018-04-13T15:54:07.541Z,8.13
2018-04-13T15:56:35.196Z,9.88
2018-04-13T15:59:02.804Z,7.13
2018-04-13T16:01:31.448Z,8.70
2018-04-13T16:03:59.152Z,5.28
2018-04-13T16:06:26.795Z,7.77
2018-04-13T16:08:55.168Z,7.73
2018-04-13T16:11:22.893Z,6.43
2018-04-13T16:13:50.664Z,7.10
2018-04-13T16:16:18.427Z,6.30
2018-04-13T16:18:46.096Z,6.80
2018-04-13T16:21:13.706Z,5.18
2018-04-13T16:23:42.238Z,7.32
2018-04-13T16:26:10.046Z,5.17
2018-04-13T16:28:38.578Z,3.35
2018-04-13T16:31:06.486Z,4.27
2018-04-13T16:33:34.223Z,5.60
2018-04-13T16:36:03.473Z,5.80
2018-04-13T16:38:32.101Z,4.53
2018-04-13T16:40:59.907Z,4.97
2018-04-13T16:43:29.530Z,6.33
2018-04-13T16:45:57.344Z,4.60
2018-04-13T16:48:24.980Z,5.60
2018-04-13T16:50:52.588Z,5.17
2018-04-13T16:53:21.066Z,4.63
2018-04-13T16:55:48.684Z,6.17
2018-04-13T16:58:16.421Z,3.93
2018-04-13T17:00:44.839Z,4.97
2018-04-13T17:03:12.563Z,5.50
2018-04-13T17:05:41.118Z,3.07
2018-04-13T17:08:09.705Z,3.83
2018-04-13T17:10:37.541Z,3.63
2018-04-13T17:13:05.182Z,3.80
2018-04-13T17:15:33.073Z,3.47
2018-04-13T17:18:00.739Z,4.63
2018-04-13T17:20:28.421Z,3.83
2018-04-13T17:22:57.220Z,3.90
2018-04-13T17:25:25.097Z,4.13
2018-04-13T17:27:53.536Z,4.27
2018-04-13T17:30:21.180Z,2.93
2018-04-13T17:32:48.804Z,3.20
2018-04-13T17:35:16.653Z,4.45
2018-04-13T17:37:45.069Z,4.10
2018-04-13T17:40:13.590Z,4.50
2018-04-13T17:42:41.279Z,5.97
2018-04-13T17:45:08.925Z,3.73
2018-04-13T17:47:36.601Z,3.23
2018-04-13T17:50:04.266Z,4.43
2018-04-13T17:52:32.513Z,3.95
2018-04-13T17:55:00.696Z,4.70
2018-04-13T17:57:28.656Z,3.97
2018-04-13T17:59:57.545Z,5.80
2018-04-13T18:02:25.829Z,3.87
2018-04-13T18:04:54.817Z,3.40
2018-04-13T18:07:24.017Z,3.22
2018-04-13T18:09:53.967Z,4.73
2018-04-13T18:12:23.758Z,3.00
2018-04-13T18:14:53.038Z,2.03
2018-04-13T18:17:22.037Z,6.33
2018-04-13T18:19:51.968Z,2.27
2018-04-13T18:22:20.444Z,3.17
2018-04-13T18:24:49.326Z,2.37
2018-04-13T18:27:17.501Z,3.47
2018-04-13T18:29:45.574Z,2.07
2018-04-13T18:32:13.645Z,3.37
2018-04-13T18:34:41.944Z,2.53
2018-04-13T18:37:10.941Z,2.80
2018-04-13T18:39:39.522Z,2.00
2018-04-13T18:42:07.187Z,3.50
2018-04-13T18:44:34.872Z,2.93
2018-04-13T18:47:04.153Z,5.47
2018-04-13T18:49:31.891Z,4.83
2018-04-13T18:51:59.733Z,6.10
2018-04-13T18:54:27.341Z,3.43
2018-04-13T18:56:55.901Z,2.97
2018-04-13T18:59:23.667Z,3.63
2018-04-13T19:01:51.292Z,2.07
2018-04-13T19:04:19.118Z,4.60
2018-04-13T19:06:46.813Z,4.57
2018-04-13T19:09:15.370Z,3.15
2018-04-13T19:11:43.932Z,11.10
2018-04-13T19:14:11.535Z,4.47
2018-04-13T19:16:40.003Z,5.70
2018-04-13T19:19:07.644Z,6.13
2018-04-13T19:21:35.303Z,4.03
2018-04-13T19:24:03.056Z,4.83
2018-04-13T19:26:30.673Z,5.30
2018-04-13T19:28:59.302Z,7.27
2018-04-13T19:31:26.994Z,4.97
2018-04-13T19:33:54.646Z,4.87
2018-04-13T19:36:22.315Z,5.33
2018-04-13T19:38:51.590Z,7.73
2018-04-13T19:41:19.354Z,4.83
2018-04-13T19:43:47.119Z,5.50
2018-04-13T19:46:14.913Z,5.33
2018-04-13T19:48:42.544Z,7.28
2018-04-13T19:51:10.154Z,5.70
2018-04-13T19:53:39.490Z,4.80
2018-04-13T19:56:07.137Z,5.97
2018-04-13T19:58:34.854Z,6.17
2018-04-13T20:01:02.528Z,5.23
2018-04-13T20:03:30.160Z,8.23
2018-04-13T20:05:57.857Z,6.90
2018-04-13T20:08:25.585Z,8.50
2018-04-13T20:10:53.396Z,6.10
2018-04-13T20:13:21.853Z,8.30
2018-04-13T20:15:49.513Z,5.93
2018-04-13T20:18:19.055Z,7.20
2018-04-13T20:20:47.464Z,7.93
2018-04-13T20:23:15.114Z,7.53
2018-04-13T20:25:43.460Z,6.62
2018-04-13T20:28:11.078Z,6.40
2018-04-13T20:30:38.725Z,6.63
2018-04-13T20:33:06.442Z,6.50
2018-04-13T20:35:34.091Z,6.53
2018-04-13T20:38:01.713Z,5.93
2018-04-13T20:40:29.344Z,5.83
2018-04-13T20:42:57.753Z,6.20
2018-04-13T20:45:25.458Z,5.40
2018-04-13T20:47:53.119Z,5.20
2018-04-13T20:50:20.831Z,6.30
2018-04-13T20:52:49.382Z,5.00
2018-04-13T20:55:17.039Z,3.57
2018-04-13T20:57:46.220Z,3.00
2018-04-13T21:00:13.886Z,2.37
2018-04-13T21:02:41.515Z,3.03
2018-04-13T21:05:09.181Z,2.57
2018-04-13T21:07:36.872Z,1.67
2018-04-13T21:10:04.517Z,1.43
2018-04-13T21:12:32.191Z,1.53
2018-04-13T21:14:59.885Z,1.33
2018-04-13T21:17:28.333Z,1.50
2018-04-13T21:19:55.991Z,2.60
2018-04-13T21:22:23.638Z,1.93
2018-04-13T21:24:51.464Z,2.03
2018-04-13T21:27:19.162Z,2.13
2018-04-13T21:29:46.808Z,2.57
2018-04-13T21:32:14.445Z,2.83
2018-04-13T21:34:42.077Z,3.00
2018-04-13T21:37:09.757Z,2.37
2018-04-13T21:39:37.408Z,3.00
2018-04-13T21:42:05.051Z,2.13
2018-04-13T21:44:32.700Z,2.23
2018-04-13T21:47:00.315Z,2.40
2018-04-13T21:49:28.786Z,2.13
2018-04-13T21:51:56.483Z,2.03
2018-04-13T21:54:24.191Z,2.83
2018-04-13T21:56:51.859Z,2.07
2018-04-13T21:59:19.518Z,4.17
2018-04-13T22:01:48.115Z,2.20
2018-04-13T22:04:15.806Z,2.50
2018-04-13T22:06:44.230Z,2.25
2018-04-13T22:09:11.874Z,2.12
2018-04-13T22:11:39.976Z,2.47
2018-04-13T22:14:20.365Z,2.50
2018-04-13T22:16:48.076Z,2.47
2018-04-13T22:19:15.862Z,2.40
2018-04-13T22:21:43.481Z,3.23
2018-04-13T22:24:11.925Z,2.77
2018-04-13T22:26:39.594Z,4.33
2018-04-13T22:29:07.225Z,3.90
2018-04-13T22:31:34.997Z,3.07
2018-04-13T22:34:02.632Z,2.50
2018-04-13T22:36:30.331Z,3.13
2018-04-13T22:38:57.972Z,2.90
2018-04-13T22:41:25.588Z,2.65
2018-04-13T22:43:53.307Z,2.53
2018-04-13T22:46:20.956Z,2.40
2018-04-13T22:48:48.617Z,2.60
2018-04-13T22:51:16.319Z,2.40
2018-04-13T22:53:43.971Z,2.33
2018-04-13T22:56:11.633Z,2.50
2018-04-13T22:58:39.334Z,2.47
2018-04-13T23:01:07.710Z,2.50
2018-04-13T23:03:36.240Z,2.70
2018-04-13T23:06:03.896Z,4.23
2018-04-13T23:08:31.542Z,2.20
2018-04-13T23:10:59.263Z,2.50
2018-04-13T23:13:26.940Z,2.50
2018-04-13T23:15:55.398Z,2.60
2018-04-13T23:18:23.047Z,2.40
2018-04-13T23:20:50.708Z,2.47
2018-04-13T23:23:18.449Z,2.30
2018-04-13T23:25:46.065Z,2.40
2018-04-13T23:28:14.457Z,2.40
2018-04-13T23:30:42.868Z,2.40
2018-04-13T23:33:10.480Z,2.73
2018-04-13T23:35:38.149Z,2.47
2018-04-13T23:38:05.846Z,2.40
2018-04-13T23:40:33.459Z,3.50
2018-04-13T23:43:01.105Z,3.00
2018-04-13T23:45:28.775Z,3.00
2018-04-13T23:47:56.421Z,2.70
2018-04-13T23:50:24.098Z,2.85
2018-04-13T23:52:52.590Z,2.70
2018-04-13T23:55:20.239Z,2.40
2018-04-13T23:57:48.752Z,2.97
